sensor_id;sensor_type;location;lat;lon;timestamp;P1;durP1;ratioP1;P2;durP2;ratioP2
41343;SDS011;27089;50.022;7.604;2023-03-23T00:01:00;1.63;;;0.80;;
41343;SDS011;27089;50.022;7.604;2023-03-23T00:03:27;2.23;;;0.77;;
41343;SDS011;27089;50.022;7.604;2023-03-23T00:05:56;0.90;;;0.70;;
41343;SDS011;27089;50.022;7.604;2023-03-23T00:08:29;1.73;;;0.63;;
41343;SDS011;27089;50.022;7.604;2023-03-23T00:10:56;1.13;;;0.70;;
41343;SDS011;27089;50.022;7.604;2023-03-23T00:13:26;1.43;;;0.80;;
41343;SDS011;27089;50.022;7.604;2023-03-23T00:15:54;1.70;;;0.97;;
41343;SDS011;27089;50.022;7.604;2023-03-23T00:18:24;2.80;;;0.80;;
41343;SDS011;27089;50.022;7.604;2023-03-23T00:20:52;0.83;;;0.70;;
41343;SDS011;27089;50.022;7.604;2023-03-23T00:23:21;1.20;;;0.80;;
41343;SDS011;27089;50.022;7.604;2023-03-23T00:25:50;2.43;;;1.00;;
41343;SDS011;27089;50.022;7.604;2023-03-23T00:28:22;2.57;;;0.90;;
41343;SDS011;27089;50.022;7.604;2023-03-23T00:30:53;0.97;;;0.70;;
41343;SDS011;27089;50.022;7.604;2023-03-23T00:33:24;1.13;;;0.80;;
41343;SDS011;27089;50.022;7.604;2023-03-23T00:35:52;1.87;;;0.80;;
41343;SDS011;27089;50.022;7.604;2023-03-23T00:38:20;1.57;;;0.83;;
41343;SDS011;27089;50.022;7.604;2023-03-23T00:40:48;3.07;;;0.87;;
41343;SDS011;27089;50.022;7.604;2023-03-23T00:43:16;1.23;;;0.80;;
41343;SDS011;27089;50.022;7.604;2023-03-23T00:45:44;1.40;;;1.00;;
41343;SDS011;27089;50.022;7.604;2023-03-23T00:48:14;1.80;;;0.90;;
41343;SDS011;27089;50.022;7.604;2023-03-23T00:50:42;1.97;;;0.93;;
41343;SDS011;27089;50.022;7.604;2023-03-23T00:53:09;1.20;;;0.90;;
41343;SDS011;27089;50.022;7.604;2023-03-23T00:55:36;1.73;;;1.00;;
41343;SDS011;27089;50.022;7.604;2023-03-23T00:58:03;1.47;;;0.87;;
41343;SDS011;27089;50.022;7.604;2023-03-23T01:00:30;1.40;;;1.00;;
41343;SDS011;27089;50.022;7.604;2023-03-23T01:02:57;1.93;;;1.10;;
41343;SDS011;27089;50.022;7.604;2023-03-23T01:05:24;2.63;;;1.00;;
41343;SDS011;27089;50.022;7.604;2023-03-23T01:07:58;1.23;;;0.90;;
41343;SDS011;27089;50.022;7.604;2023-03-23T01:10:25;1.20;;;0.90;;
41343;SDS011;27089;50.022;7.604;2023-03-23T01:12:52;1.30;;;0.87;;
41343;SDS011;27089;50.022;7.604;2023-03-23T01:15:20;1.60;;;0.80;;
41343;SDS011;27089;50.022;7.604;2023-03-23T01:17:47;2.37;;;0.83;;
41343;SDS011;27089;50.022;7.604;2023-03-23T01:20:14;1.33;;;0.97;;
41343;SDS011;27089;50.022;7.604;2023-03-23T01:22:42;2.00;;;1.00;;
41343;SDS011;27089;50.022;7.604;2023-03-23T01:25:11;1.00;;;0.80;;
41343;SDS011;27089;50.022;7.604;2023-03-23T01:27:39;3.27;;;0.97;;
41343;SDS011;27089;50.022;7.604;2023-03-23T01:30:07;1.27;;;0.97;;
41343;SDS011;27089;50.022;7.604;2023-03-23T01:32:37;5.33;;;1.00;;
41343;SDS011;27089;50.022;7.604;2023-03-23T01:35:04;1.13;;;0.80;;
41343;SDS011;27089;50.022;7.604;2023-03-23T01:37:31;1.43;;;0.80;;
41343;SDS011;27089;50.022;7.604;2023-03-23T01:39:58;1.10;;;0.90;;
41343;SDS011;27089;50.022;7.604;2023-03-23T01:42:30;0.90;;;0.60;;
41343;SDS011;27089;50.022;7.604;2023-03-23T01:45:17;2.07;;;0.93;;
41343;SDS011;27089;50.022;7.604;2023-03-23T01:47:50;1.20;;;0.73;;
41343;SDS011;27089;50.022;7.604;2023-03-23T01:50:33;1.33;;;0.90;;
41343;SDS011;27089;50.022;7.604;2023-03-23T01:53:04;1.30;;;0.80;;
41343;SDS011;27089;50.022;7.604;2023-03-23T01:55:34;1.00;;;0.80;;
41343;SDS011;27089;50.022;7.604;2023-03-23T01:58:05;0.90;;;0.80;;
41343;SDS011;27089;50.022;7.604;2023-03-23T02:00:34;0.90;;;0.80;;
41343;SDS011;27089;50.022;7.604;2023-03-23T02:03:02;2.17;;;0.93;;
41343;SDS011;27089;50.022;7.604;2023-03-23T02:05:30;1.03;;;0.70;;
41343;SDS011;27089;50.022;7.604;2023-03-23T02:08:00;1.60;;;1.00;;
41343;SDS011;27089;50.022;7.604;2023-03-23T02:10:30;1.10;;;0.80;;
41343;SDS011;27089;50.022;7.604;2023-03-23T02:12:58;1.87;;;0.87;;
41343;SDS011;27089;50.022;7.604;2023-03-23T02:15:31;1.13;;;1.00;;
41343;SDS011;27089;50.022;7.604;2023-03-23T02:18:04;1.10;;;0.80;;
41343;SDS011;27089;50.022;7.604;2023-03-23T02:20:48;0.93;;;0.90;;
41343;SDS011;27089;50.022;7.604;2023-03-23T02:23:41;1.27;;;0.80;;
41343;SDS011;27089;50.022;7.604;2023-03-23T02:26:34;4.57;;;1.10;;
41343;SDS011;27089;50.022;7.604;2023-03-23T02:29:16;1.20;;;0.90;;
41343;SDS011;27089;50.022;7.604;2023-03-23T02:32:12;1.60;;;1.10;;
41343;SDS011;27089;50.022;7.604;2023-03-23T02:34:51;1.07;;;0.83;;
41343;SDS011;27089;50.022;7.604;2023-03-23T02:37:24;0.70;;;0.70;;
41343;SDS011;27089;50.022;7.604;2023-03-23T02:39:57;1.30;;;1.00;;
41343;SDS011;27089;50.022;7.604;2023-03-23T02:42:35;1.20;;;0.90;;
41343;SDS011;27089;50.022;7.604;2023-03-23T02:45:05;1.70;;;1.23;;
41343;SDS011;27089;50.022;7.604;2023-03-23T02:47:34;1.23;;;0.90;;
41343;SDS011;27089;50.022;7.604;2023-03-23T02:50:07;1.63;;;1.10;;
41343;SDS011;27089;50.022;7.604;2023-03-23T02:52:38;2.33;;;1.33;;
41343;SDS011;27089;50.022;7.604;2023-03-23T02:55:07;2.40;;;1.20;;
41343;SDS011;27089;50.022;7.604;2023-03-23T02:57:39;1.43;;;1.10;;
41343;SDS011;27089;50.022;7.604;2023-03-23T03:00:06;2.17;;;1.00;;
41343;SDS011;27089;50.022;7.604;2023-03-23T03:02:39;1.93;;;1.00;;
41343;SDS011;27089;50.022;7.604;2023-03-23T03:05:11;0.87;;;0.80;;
41343;SDS011;27089;50.022;7.604;2023-03-23T03:07:49;2.27;;;1.10;;
41343;SDS011;27089;50.022;7.604;2023-03-23T03:10:25;1.33;;;1.00;;
41343;SDS011;27089;50.022;7.604;2023-03-23T03:12:59;1.30;;;1.20;;
41343;SDS011;27089;50.022;7.604;2023-03-23T03:15:33;2.83;;;1.20;;
41343;SDS011;27089;50.022;7.604;2023-03-23T03:18:05;2.60;;;1.10;;
41343;SDS011;27089;50.022;7.604;2023-03-23T03:20:40;1.40;;;1.10;;
41343;SDS011;27089;50.022;7.604;2023-03-23T03:23:11;2.47;;;1.27;;
41343;SDS011;27089;50.022;7.604;2023-03-23T03:25:41;2.27;;;1.50;;
41343;SDS011;27089;50.022;7.604;2023-03-23T03:28:12;1.80;;;1.40;;
41343;SDS011;27089;50.022;7.604;2023-03-23T03:30:41;2.50;;;1.20;;
41343;SDS011;27089;50.022;7.604;2023-03-23T03:33:11;2.10;;;1.13;;
41343;SDS011;27089;50.022;7.604;2023-03-23T03:35:40;1.50;;;1.20;;
41343;SDS011;27089;50.022;7.604;2023-03-23T03:38:09;2.77;;;1.37;;
41343;SDS011;27089;50.022;7.604;2023-03-23T03:40:37;1.60;;;1.20;;
41343;SDS011;27089;50.022;7.604;2023-03-23T03:43:05;2.23;;;1.63;;
41343;SDS011;27089;50.022;7.604;2023-03-23T03:45:33;1.37;;;1.20;;
41343;SDS011;27089;50.022;7.604;2023-03-23T03:48:00;2.60;;;1.00;;
41343;SDS011;27089;50.022;7.604;2023-03-23T03:50:27;1.93;;;1.53;;
41343;SDS011;27089;50.022;7.604;2023-03-23T03:52:56;2.13;;;1.50;;
41343;SDS011;27089;50.022;7.604;2023-03-23T03:55:24;2.60;;;1.67;;
41343;SDS011;27089;50.022;7.604;2023-03-23T03:57:53;1.73;;;1.30;;
41343;SDS011;27089;50.022;7.604;2023-03-23T04:00:20;3.93;;;1.70;;
41343;SDS011;27089;50.022;7.604;2023-03-23T04:02:48;2.03;;;1.53;;
41343;SDS011;27089;50.022;7.604;2023-03-23T04:05:19;3.33;;;1.60;;
41343;SDS011;27089;50.022;7.604;2023-03-23T04:07:47;2.73;;;1.50;;
41343;SDS011;27089;50.022;7.604;2023-03-23T04:10:18;3.90;;;1.43;;
41343;SDS011;27089;50.022;7.604;2023-03-23T04:12:47;1.73;;;1.50;;
41343;SDS011;27089;50.022;7.604;2023-03-23T04:15:14;1.60;;;1.50;;
41343;SDS011;27089;50.022;7.604;2023-03-23T04:17:41;2.80;;;1.60;;
41343;SDS011;27089;50.022;7.604;2023-03-23T04:20:09;3.10;;;1.77;;
41343;SDS011;27089;50.022;7.604;2023-03-23T04:22:41;6.57;;;5.33;;
41343;SDS011;27089;50.022;7.604;2023-03-23T04:25:09;2.77;;;2.37;;
41343;SDS011;27089;50.022;7.604;2023-03-23T04:27:39;2.40;;;1.50;;
41343;SDS011;27089;50.022;7.604;2023-03-23T04:30:12;3.73;;;1.37;;
41343;SDS011;27089;50.022;7.604;2023-03-23T04:32:40;2.70;;;1.50;;
41343;SDS011;27089;50.022;7.604;2023-03-23T04:35:08;2.97;;;1.90;;
41343;SDS011;27089;50.022;7.604;2023-03-23T04:37:37;2.23;;;1.57;;
41343;SDS011;27089;50.022;7.604;2023-03-23T04:40:06;2.70;;;1.70;;
41343;SDS011;27089;50.022;7.604;2023-03-23T04:42:37;3.50;;;1.27;;
41343;SDS011;27089;50.022;7.604;2023-03-23T04:45:06;1.93;;;1.50;;
41343;SDS011;27089;50.022;7.604;2023-03-23T04:47:35;2.03;;;1.60;;
41343;SDS011;27089;50.022;7.604;2023-03-23T04:50:06;2.07;;;1.60;;
41343;SDS011;27089;50.022;7.604;2023-03-23T04:52:34;2.50;;;1.60;;
41343;SDS011;27089;50.022;7.604;2023-03-23T04:55:03;2.67;;;1.60;;
41343;SDS011;27089;50.022;7.604;2023-03-23T04:57:31;3.10;;;1.70;;
41343;SDS011;27089;50.022;7.604;2023-03-23T05:00:00;2.70;;;1.37;;
41343;SDS011;27089;50.022;7.604;2023-03-23T05:02:30;3.63;;;1.60;;
41343;SDS011;27089;50.022;7.604;2023-03-23T05:04:59;2.27;;;1.33;;
41343;SDS011;27089;50.022;7.604;2023-03-23T05:07:26;2.17;;;1.20;;
41343;SDS011;27089;50.022;7.604;2023-03-23T05:09:52;2.33;;;1.30;;
41343;SDS011;27089;50.022;7.604;2023-03-23T05:12:20;3.53;;;1.63;;
41343;SDS011;27089;50.022;7.604;2023-03-23T05:14:47;1.67;;;1.50;;
41343;SDS011;27089;50.022;7.604;2023-03-23T05:17:15;2.53;;;1.40;;
41343;SDS011;27089;50.022;7.604;2023-03-23T05:19:43;6.07;;;5.47;;
41343;SDS011;27089;50.022;7.604;2023-03-23T05:22:12;21.10;;;16.43;;
41343;SDS011;27089;50.022;7.604;2023-03-23T05:24:39;7.20;;;5.23;;
41343;SDS011;27089;50.022;7.604;2023-03-23T05:27:07;7.57;;;6.23;;
41343;SDS011;27089;50.022;7.604;2023-03-23T05:29:35;4.83;;;3.13;;
41343;SDS011;27089;50.022;7.604;2023-03-23T05:32:02;13.07;;;8.50;;
41343;SDS011;27089;50.022;7.604;2023-03-23T05:34:32;4.97;;;3.80;;
41343;SDS011;27089;50.022;7.604;2023-03-23T05:36:59;4.00;;;2.53;;
41343;SDS011;27089;50.022;7.604;2023-03-23T05:39:26;6.80;;;5.47;;
41343;SDS011;27089;50.022;7.604;2023-03-23T05:41:54;3.47;;;2.73;;
41343;SDS011;27089;50.022;7.604;2023-03-23T05:44:21;4.40;;;4.00;;
41343;SDS011;27089;50.022;7.604;2023-03-23T05:46:48;2.97;;;2.00;;
41343;SDS011;27089;50.022;7.604;2023-03-23T05:49:16;5.10;;;2.90;;
41343;SDS011;27089;50.022;7.604;2023-03-23T05:51:45;2.73;;;1.63;;
41343;SDS011;27089;50.022;7.604;2023-03-23T05:54:12;2.67;;;2.47;;
41343;SDS011;27089;50.022;7.604;2023-03-23T05:56:39;2.40;;;1.90;;
41343;SDS011;27089;50.022;7.604;2023-03-23T05:59:06;2.50;;;1.67;;
41343;SDS011;27089;50.022;7.604;2023-03-23T06:01:35;2.73;;;1.50;;
41343;SDS011;27089;50.022;7.604;2023-03-23T06:04:02;1.97;;;1.50;;
41343;SDS011;27089;50.022;7.604;2023-03-23T06:06:29;2.87;;;1.67;;
41343;SDS011;27089;50.022;7.604;2023-03-23T06:08:58;1.83;;;1.40;;
41343;SDS011;27089;50.022;7.604;2023-03-23T06:11:26;2.23;;;1.10;;
41343;SDS011;27089;50.022;7.604;2023-03-23T06:13:52;2.00;;;1.20;;
41343;SDS011;27089;50.022;7.604;2023-03-23T06:16:19;2.10;;;0.90;;
41343;SDS011;27089;50.022;7.604;2023-03-23T06:18:47;2.40;;;0.97;;
41343;SDS011;27089;50.022;7.604;2023-03-23T06:21:14;1.37;;;1.10;;
41343;SDS011;27089;50.022;7.604;2023-03-23T06:23:43;2.57;;;0.90;;
41343;SDS011;27089;50.022;7.604;2023-03-23T06:26:12;2.20;;;0.90;;
41343;SDS011;27089;50.022;7.604;2023-03-23T06:28:41;1.47;;;0.80;;
41343;SDS011;27089;50.022;7.604;2023-03-23T06:31:09;1.57;;;1.10;;
41343;SDS011;27089;50.022;7.604;2023-03-23T06:33:36;1.93;;;1.00;;
41343;SDS011;27089;50.022;7.604;2023-03-23T06:36:04;3.17;;;0.90;;
41343;SDS011;27089;50.022;7.604;2023-03-23T06:38:32;4.63;;;1.30;;
41343;SDS011;27089;50.022;7.604;2023-03-23T06:40:59;2.37;;;1.00;;
41343;SDS011;27089;50.022;7.604;2023-03-23T06:43:28;2.43;;;1.00;;
41343;SDS011;27089;50.022;7.604;2023-03-23T06:45:57;2.37;;;1.10;;
41343;SDS011;27089;50.022;7.604;2023-03-23T06:48:25;2.37;;;1.10;;
41343;SDS011;27089;50.022;7.604;2023-03-23T06:50:53;1.57;;;1.27;;
41343;SDS011;27089;50.022;7.604;2023-03-23T06:53:20;2.97;;;1.27;;
41343;SDS011;27089;50.022;7.604;2023-03-23T06:55:47;1.80;;;1.10;;
41343;SDS011;27089;50.022;7.604;2023-03-23T06:58:14;2.67;;;1.00;;
41343;SDS011;27089;50.022;7.604;2023-03-23T07:00:42;3.73;;;1.23;;
41343;SDS011;27089;50.022;7.604;2023-03-23T07:03:10;1.17;;;0.90;;
41343;SDS011;27089;50.022;7.604;2023-03-23T07:05:38;2.10;;;1.07;;
41343;SDS011;27089;50.022;7.604;2023-03-23T07:08:05;2.23;;;1.20;;
41343;SDS011;27089;50.022;7.604;2023-03-23T07:10:32;1.93;;;1.00;;
41343;SDS011;27089;50.022;7.604;2023-03-23T07:12:59;3.03;;;1.03;;
41343;SDS011;27089;50.022;7.604;2023-03-23T07:15:26;3.80;;;1.30;;
41343;SDS011;27089;50.022;7.604;2023-03-23T07:17:54;2.83;;;1.20;;
41343;SDS011;27089;50.022;7.604;2023-03-23T07:20:21;18.93;;;8.80;;
41343;SDS011;27089;50.022;7.604;2023-03-23T07:22:48;12.60;;;7.17;;
41343;SDS011;27089;50.022;7.604;2023-03-23T07:25:16;2.97;;;1.63;;
41343;SDS011;27089;50.022;7.604;2023-03-23T07:27:43;1.90;;;1.40;;
41343;SDS011;27089;50.022;7.604;2023-03-23T07:30:11;1.93;;;1.03;;
41343;SDS011;27089;50.022;7.604;2023-03-23T07:32:39;1.73;;;1.20;;
41343;SDS011;27089;50.022;7.604;2023-03-23T07:35:08;3.30;;;1.37;;
41343;SDS011;27089;50.022;7.604;2023-03-23T07:37:36;2.17;;;1.20;;
41343;SDS011;27089;50.022;7.604;2023-03-23T07:40:03;1.67;;;1.30;;
41343;SDS011;27089;50.022;7.604;2023-03-23T07:42:39;1.47;;;0.90;;
41343;SDS011;27089;50.022;7.604;2023-03-23T07:45:07;2.20;;;1.00;;
41343;SDS011;27089;50.022;7.604;2023-03-23T07:47:35;2.57;;;1.00;;
41343;SDS011;27089;50.022;7.604;2023-03-23T07:50:02;1.67;;;1.10;;
41343;SDS011;27089;50.022;7.604;2023-03-23T07:52:32;1.53;;;1.10;;
41343;SDS011;27089;50.022;7.604;2023-03-23T07:55:00;3.13;;;1.20;;
41343;SDS011;27089;50.022;7.604;2023-03-23T07:57:28;1.20;;;0.90;;
41343;SDS011;27089;50.022;7.604;2023-03-23T07:59:55;1.23;;;1.00;;
41343;SDS011;27089;50.022;7.604;2023-03-23T08:02:22;1.33;;;1.03;;
41343;SDS011;27089;50.022;7.604;2023-03-23T08:04:50;1.87;;;1.00;;
41343;SDS011;27089;50.022;7.604;2023-03-23T08:07:18;1.77;;;1.00;;
41343;SDS011;27089;50.022;7.604;2023-03-23T08:09:47;1.57;;;0.97;;
41343;SDS011;27089;50.022;7.604;2023-03-23T08:12:14;1.50;;;0.73;;
41343;SDS011;27089;50.022;7.604;2023-03-23T08:14:42;1.40;;;0.90;;
41343;SDS011;27089;50.022;7.604;2023-03-23T08:17:09;1.30;;;0.77;;
41343;SDS011;27089;50.022;7.604;2023-03-23T08:19:36;4.27;;;2.80;;
41343;SDS011;27089;50.022;7.604;2023-03-23T08:22:03;1.17;;;0.77;;
41343;SDS011;27089;50.022;7.604;2023-03-23T08:24:30;1.20;;;0.97;;
41343;SDS011;27089;50.022;7.604;2023-03-23T08:27:00;0.57;;;0.53;;
41343;SDS011;27089;50.022;7.604;2023-03-23T08:29:27;0.83;;;0.70;;
41343;SDS011;27089;50.022;7.604;2023-03-23T08:31:54;1.67;;;0.83;;
41343;SDS011;27089;50.022;7.604;2023-03-23T08:34:23;0.73;;;0.73;;
41343;SDS011;27089;50.022;7.604;2023-03-23T08:36:50;0.90;;;0.77;;
41343;SDS011;27089;50.022;7.604;2023-03-23T08:39:18;1.03;;;0.70;;
41343;SDS011;27089;50.022;7.604;2023-03-23T08:41:45;1.40;;;0.70;;
41343;SDS011;27089;50.022;7.604;2023-03-23T08:44:13;0.60;;;0.50;;
41343;SDS011;27089;50.022;7.604;2023-03-23T08:46:41;0.50;;;0.50;;
41343;SDS011;27089;50.022;7.604;2023-03-23T08:49:08;1.70;;;0.50;;
41343;SDS011;27089;50.022;7.604;2023-03-23T08:51:35;0.77;;;0.53;;
41343;SDS011;27089;50.022;7.604;2023-03-23T08:54:02;0.40;;;0.40;;
41343;SDS011;27089;50.022;7.604;2023-03-23T08:56:29;0.63;;;0.53;;
41343;SDS011;27089;50.022;7.604;2023-03-23T08:58:56;2.43;;;0.60;;
41343;SDS011;27089;50.022;7.604;2023-03-23T09:01:24;0.70;;;0.50;;
41343;SDS011;27089;50.022;7.604;2023-03-23T09:03:51;1.03;;;0.53;;
41343;SDS011;27089;50.022;7.604;2023-03-23T09:06:19;2.60;;;0.57;;
41343;SDS011;27089;50.022;7.604;2023-03-23T09:08:46;1.47;;;0.50;;
41343;SDS011;27089;50.022;7.604;2023-03-23T09:11:13;1.93;;;1.00;;
41343;SDS011;27089;50.022;7.604;2023-03-23T09:13:40;0.70;;;0.60;;
41343;SDS011;27089;50.022;7.604;2023-03-23T09:16:08;0.77;;;0.60;;
41343;SDS011;27089;50.022;7.604;2023-03-23T09:18:36;1.53;;;0.60;;
41343;SDS011;27089;50.022;7.604;2023-03-23T09:21:04;0.87;;;0.63;;
41343;SDS011;27089;50.022;7.604;2023-03-23T09:23:31;1.77;;;0.67;;
41343;SDS011;27089;50.022;7.604;2023-03-23T09:25:59;1.17;;;0.80;;
41343;SDS011;27089;50.022;7.604;2023-03-23T09:28:27;1.70;;;0.77;;
41343;SDS011;27089;50.022;7.604;2023-03-23T09:30:56;1.60;;;0.80;;
41343;SDS011;27089;50.022;7.604;2023-03-23T09:33:24;1.00;;;0.70;;
41343;SDS011;27089;50.022;7.604;2023-03-23T09:35:53;1.33;;;0.63;;
41343;SDS011;27089;50.022;7.604;2023-03-23T09:38:20;1.83;;;0.70;;
41343;SDS011;27089;50.022;7.604;2023-03-23T09:40:48;1.43;;;0.80;;
41343;SDS011;27089;50.022;7.604;2023-03-23T09:43:29;0.90;;;0.60;;
41343;SDS011;27089;50.022;7.604;2023-03-23T09:46:11;1.83;;;0.67;;
41343;SDS011;27089;50.022;7.604;2023-03-23T09:48:51;1.97;;;0.70;;
41343;SDS011;27089;50.022;7.604;2023-03-23T09:51:27;0.97;;;0.60;;
41343;SDS011;27089;50.022;7.604;2023-03-23T09:54:03;1.17;;;0.77;;
41343;SDS011;27089;50.022;7.604;2023-03-23T09:56:37;1.23;;;0.70;;
41343;SDS011;27089;50.022;7.604;2023-03-23T09:59:05;3.30;;;2.00;;
41343;SDS011;27089;50.022;7.604;2023-03-23T10:01:39;1.43;;;0.80;;
41343;SDS011;27089;50.022;7.604;2023-03-23T10:04:11;1.17;;;0.67;;
41343;SDS011;27089;50.022;7.604;2023-03-23T10:06:47;1.03;;;0.70;;
41343;SDS011;27089;50.022;7.604;2023-03-23T10:09:15;1.70;;;0.70;;
41343;SDS011;27089;50.022;7.604;2023-03-23T10:11:47;1.63;;;0.60;;
41343;SDS011;27089;50.022;7.604;2023-03-23T10:17:24;2.03;;;0.70;;
41343;SDS011;27089;50.022;7.604;2023-03-23T10:19:55;1.23;;;0.60;;
41343;SDS011;27089;50.022;7.604;2023-03-23T10:22:32;0.70;;;0.57;;
41343;SDS011;27089;50.022;7.604;2023-03-23T10:25:03;1.07;;;0.70;;
41343;SDS011;27089;50.022;7.604;2023-03-23T10:27:43;0.70;;;0.67;;
41343;SDS011;27089;50.022;7.604;2023-03-23T10:30:17;2.10;;;0.67;;
41343;SDS011;27089;50.022;7.604;2023-03-23T10:32:50;1.23;;;0.80;;
41343;SDS011;27089;50.022;7.604;2023-03-23T10:35:21;0.70;;;0.50;;
41343;SDS011;27089;50.022;7.604;2023-03-23T10:37:54;0.50;;;0.50;;
41343;SDS011;27089;50.022;7.604;2023-03-23T10:40:27;0.90;;;0.50;;
41343;SDS011;27089;50.022;7.604;2023-03-23T10:42:56;0.67;;;0.47;;
41343;SDS011;27089;50.022;7.604;2023-03-23T10:45:24;1.27;;;0.57;;
41343;SDS011;27089;50.022;7.604;2023-03-23T10:47:55;0.60;;;0.30;;
41343;SDS011;27089;50.022;7.604;2023-03-23T10:50:26;0.70;;;0.60;;
41343;SDS011;27089;50.022;7.604;2023-03-23T10:52:58;3.23;;;2.50;;
41343;SDS011;27089;50.022;7.604;2023-03-23T10:55:35;0.50;;;0.50;;
41343;SDS011;27089;50.022;7.604;2023-03-23T10:58:04;0.60;;;0.50;;
41343;SDS011;27089;50.022;7.604;2023-03-23T11:00:39;0.80;;;0.70;;
41343;SDS011;27089;50.022;7.604;2023-03-23T11:03:21;0.70;;;0.40;;
41343;SDS011;27089;50.022;7.604;2023-03-23T11:05:54;0.80;;;0.53;;
41343;SDS011;27089;50.022;7.604;2023-03-23T11:08:25;0.47;;;0.47;;
41343;SDS011;27089;50.022;7.604;2023-03-23T11:10:56;1.20;;;1.10;;
41343;SDS011;27089;50.022;7.604;2023-03-23T11:13:27;1.07;;;0.83;;
41343;SDS011;27089;50.022;7.604;2023-03-23T11:15:56;2.10;;;1.10;;
41343;SDS011;27089;50.022;7.604;2023-03-23T11:18:25;3.77;;;1.80;;
41343;SDS011;27089;50.022;7.604;2023-03-23T11:21:01;1.53;;;0.93;;
41343;SDS011;27089;50.022;7.604;2023-03-23T11:23:33;3.17;;;2.03;;
41343;SDS011;27089;50.022;7.604;2023-03-23T11:26:08;2.57;;;1.40;;
41343;SDS011;27089;50.022;7.604;2023-03-23T11:28:42;3.97;;;1.30;;
41343;SDS011;27089;50.022;7.604;2023-03-23T11:31:11;1.83;;;0.73;;
41343;SDS011;27089;50.022;7.604;2023-03-23T11:33:46;0.50;;;0.50;;
41343;SDS011;27089;50.022;7.604;2023-03-23T11:36:17;1.07;;;0.97;;
41343;SDS011;27089;50.022;7.604;2023-03-23T11:38:46;0.90;;;0.77;;
41343;SDS011;27089;50.022;7.604;2023-03-23T11:41:17;0.43;;;0.40;;
41343;SDS011;27089;50.022;7.604;2023-03-23T11:43:45;0.77;;;0.47;;
41343;SDS011;27089;50.022;7.604;2023-03-23T11:46:16;0.40;;;0.30;;
41343;SDS011;27089;50.022;7.604;2023-03-23T11:48:52;0.50;;;0.50;;
41343;SDS011;27089;50.022;7.604;2023-03-23T11:51:25;0.63;;;0.57;;
41343;SDS011;27089;50.022;7.604;2023-03-23T11:54:00;0.97;;;0.60;;
41343;SDS011;27089;50.022;7.604;2023-03-23T11:56:34;0.30;;;0.30;;
41343;SDS011;27089;50.022;7.604;2023-03-23T11:59:02;0.43;;;0.40;;
41343;SDS011;27089;50.022;7.604;2023-03-23T12:01:41;0.63;;;0.50;;
41343;SDS011;27089;50.022;7.604;2023-03-23T12:04:33;0.60;;;0.50;;
41343;SDS011;27089;50.022;7.604;2023-03-23T12:10:13;0.60;;;0.50;;
41343;SDS011;27089;50.022;7.604;2023-03-23T12:12:51;2.10;;;1.47;;
41343;SDS011;27089;50.022;7.604;2023-03-23T12:15:28;1.83;;;1.30;;
41343;SDS011;27089;50.022;7.604;2023-03-23T12:18:03;2.33;;;1.40;;
41343;SDS011;27089;50.022;7.604;2023-03-23T12:20:38;3.33;;;2.67;;
41343;SDS011;27089;50.022;7.604;2023-03-23T12:23:22;2.87;;;2.27;;
41343;SDS011;27089;50.022;7.604;2023-03-23T12:29:03;1.67;;;0.90;;
41343;SDS011;27089;50.022;7.604;2023-03-23T12:31:44;2.07;;;1.53;;
41343;SDS011;27089;50.022;7.604;2023-03-23T12:34:21;1.30;;;1.17;;
41343;SDS011;27089;50.022;7.604;2023-03-23T12:36:58;1.50;;;1.00;;
41343;SDS011;27089;50.022;7.604;2023-03-23T12:39:52;0.70;;;0.60;;
41343;SDS011;27089;50.022;7.604;2023-03-23T12:42:36;0.87;;;0.60;;
41343;SDS011;27089;50.022;7.604;2023-03-23T12:45:14;1.17;;;0.70;;
41343;SDS011;27089;50.022;7.604;2023-03-23T12:47:50;1.47;;;1.00;;
41343;SDS011;27089;50.022;7.604;2023-03-23T12:50:24;1.45;;;0.90;;
41343;SDS011;27089;50.022;7.604;2023-03-23T12:52:56;1.47;;;0.80;;
41343;SDS011;27089;50.022;7.604;2023-03-23T12:55:31;1.20;;;0.85;;
41343;SDS011;27089;50.022;7.604;2023-03-23T12:58:03;0.80;;;0.50;;
41343;SDS011;27089;50.022;7.604;2023-03-23T13:00:46;1.30;;;0.50;;
41343;SDS011;27089;50.022;7.604;2023-03-23T13:03:24;0.60;;;0.40;;
41343;SDS011;27089;50.022;7.604;2023-03-23T13:05:58;0.60;;;0.50;;
41343;SDS011;27089;50.022;7.604;2023-03-23T13:08:31;1.27;;;0.57;;
41343;SDS011;27089;50.022;7.604;2023-03-23T13:11:03;2.07;;;0.97;;
41343;SDS011;27089;50.022;7.604;2023-03-23T13:13:41;1.10;;;0.90;;
41343;SDS011;27089;50.022;7.604;2023-03-23T13:16:14;1.30;;;0.80;;
41343;SDS011;27089;50.022;7.604;2023-03-23T13:18:49;8.57;;;4.47;;
41343;SDS011;27089;50.022;7.604;2023-03-23T13:21:24;1.43;;;0.90;;
41343;SDS011;27089;50.022;7.604;2023-03-23T13:23:55;1.23;;;0.60;;
41343;SDS011;27089;50.022;7.604;2023-03-23T13:26:26;2.03;;;1.00;;
41343;SDS011;27089;50.022;7.604;2023-03-23T13:28:55;1.10;;;0.80;;
41343;SDS011;27089;50.022;7.604;2023-03-23T13:31:26;2.53;;;1.90;;
41343;SDS011;27089;50.022;7.604;2023-03-23T13:33:58;0.90;;;0.70;;
41343;SDS011;27089;50.022;7.604;2023-03-23T13:36:29;0.97;;;0.60;;
41343;SDS011;27089;50.022;7.604;2023-03-23T13:38:58;0.83;;;0.50;;
41343;SDS011;27089;50.022;7.604;2023-03-23T13:41:29;1.10;;;0.80;;
41343;SDS011;27089;50.022;7.604;2023-03-23T13:44:15;3.03;;;1.00;;
41343;SDS011;27089;50.022;7.604;2023-03-23T13:46:55;1.27;;;0.80;;
41343;SDS011;27089;50.022;7.604;2023-03-23T13:49:23;1.27;;;0.73;;
41343;SDS011;27089;50.022;7.604;2023-03-23T13:51:57;2.33;;;0.80;;
41343;SDS011;27089;50.022;7.604;2023-03-23T13:54:31;1.13;;;0.80;;
41343;SDS011;27089;50.022;7.604;2023-03-23T13:57:19;1.80;;;0.80;;
41343;SDS011;27089;50.022;7.604;2023-03-23T14:00:08;1.27;;;1.00;;
41343;SDS011;27089;50.022;7.604;2023-03-23T14:02:57;2.37;;;1.10;;
41343;SDS011;27089;50.022;7.604;2023-03-23T14:05:30;2.97;;;1.43;;
41343;SDS011;27089;50.022;7.604;2023-03-23T14:08:01;3.53;;;1.70;;
41343;SDS011;27089;50.022;7.604;2023-03-23T14:10:36;3.60;;;1.23;;
41343;SDS011;27089;50.022;7.604;2023-03-23T14:13:06;2.47;;;1.10;;
41343;SDS011;27089;50.022;7.604;2023-03-23T14:15:42;1.73;;;1.00;;
41343;SDS011;27089;50.022;7.604;2023-03-23T14:29:47;2.90;;;1.23;;
41343;SDS011;27089;50.022;7.604;2023-03-23T14:32:24;6.97;;;4.10;;
41343;SDS011;27089;50.022;7.604;2023-03-23T14:34:53;4.03;;;1.73;;
41343;SDS011;27089;50.022;7.604;2023-03-23T14:37:20;3.27;;;1.03;;
41343;SDS011;27089;50.022;7.604;2023-03-23T14:39:48;2.23;;;1.37;;
41343;SDS011;27089;50.022;7.604;2023-03-23T14:42:19;2.93;;;1.30;;
41343;SDS011;27089;50.022;7.604;2023-03-23T14:44:51;1.43;;;1.03;;
41343;SDS011;27089;50.022;7.604;2023-03-23T14:47:19;3.63;;;1.27;;
41343;SDS011;27089;50.022;7.604;2023-03-23T14:49:52;4.27;;;2.77;;
41343;SDS011;27089;50.022;7.604;2023-03-23T14:52:21;3.60;;;2.20;;
41343;SDS011;27089;50.022;7.604;2023-03-23T14:54:49;4.40;;;2.07;;
41343;SDS011;27089;50.022;7.604;2023-03-23T14:57:17;3.90;;;1.27;;
41343;SDS011;27089;50.022;7.604;2023-03-23T14:59:47;3.13;;;1.07;;
41343;SDS011;27089;50.022;7.604;2023-03-23T15:02:17;2.00;;;1.53;;
41343;SDS011;27089;50.022;7.604;2023-03-23T15:04:48;3.07;;;1.07;;
41343;SDS011;27089;50.022;7.604;2023-03-23T15:07:17;3.77;;;1.50;;
41343;SDS011;27089;50.022;7.604;2023-03-23T15:09:45;27.87;;;17.10;;
41343;SDS011;27089;50.022;7.604;2023-03-23T15:12:19;120.40;;;65.50;;
41343;SDS011;27089;50.022;7.604;2023-03-23T15:14:48;80.43;;;43.47;;
41343;SDS011;27089;50.022;7.604;2023-03-23T15:17:19;78.90;;;41.60;;
41343;SDS011;27089;50.022;7.604;2023-03-23T15:19:48;87.60;;;44.07;;
41343;SDS011;27089;50.022;7.604;2023-03-23T15:22:18;151.57;;;60.03;;
41343;SDS011;27089;50.022;7.604;2023-03-23T15:24:47;4.80;;;2.30;;
41343;SDS011;27089;50.022;7.604;2023-03-23T15:27:22;4.03;;;3.60;;
41343;SDS011;27089;50.022;7.604;2023-03-23T15:29:52;3.80;;;2.40;;